Cape Byron AWS, Australia

10:51 AM AEDT on March 30, 2017 (GMT +1100)
Suffolk Park, Byron Bay | | Change Station

Elev 110 ft 28.68 °S, 153.61 °E | Updated 1 second ago

Rain
Rain
74.1 °F
Feels Like 71 °F
N
7.2
Wind Variable Wind from NE
Gusts 7.4 mph

Today
High -- | Low -- °F
--% Chance of Precip.
Yesterday
High -- | Low -- °F
Precip. -- in
Pressure 29.83 in
Visibility 1.4 miles
Clouds Scattered Clouds 1000 ft
Scattered Clouds 1800 ft
Mostly Cloudy 2200 ft
Heat Index 71 °F
Dew Point 73 °F
Humidity 97%
Rainfall 1.24 in
Snow Depth Not available.
6:54 AM 6:45 PM
Waxing Crescent, 5% visible
SPECI YLIS 292330Z AUTO 06011KT 2200 // SCT010 SCT018 BKN022 24/23 Q1010
Pressure 29.83 in
Visibility 1.4 miles
Clouds Scattered Clouds 1000 ft
Scattered Clouds 1800 ft
Mostly Cloudy 2200 ft
Heat Index 71 °F
Dew Point 73 °F
Humidity 97%
Rainfall 1.24 in
Snow Depth Not available.
6:54 AM 6:45 PM
Waxing Crescent, 5% visible
SPECI YLIS 292330Z AUTO 06011KT 2200 // SCT010 SCT018 BKN022 24/23 Q1010

Get Severe Weather Alerts

Thanks for signing up!

Be on the lookout for a verification email in your inbox.

You'll start receiving the daily forecast at 8 AM.

×

10-Day Weather Forecast

×

Almanac

Astronomy

Mar. 30, 2017 Rise Set
Actual Time
Civil Twilight
Nautical Twilight
Astronomical Twilight
Moon
Length of Visible Light
Length of Day
Tomorrow will be .
, % of the Moon is Illuminated

Today's Extremes

Country Highs Country Lows

Community

WunderPhotos

Upload Photos

1,962,540 photos uploaded!

WunderBlog® & News

Nearby

Air Quality

  Air Quality AQ Index Pollutant
Not available.

Snow Depth

Station Depth Elevation

Earthquake Activity

City Distance Mag. Time & Date
Minimum magnitude displayed is 2.5.

Earthquake Activity

City Distance Mag. Time & Date
Minimum magnitude displayed is 2.5.

Coastal Water Temperatures

Place Temperature

Stations

Nearby Weather Stations

Station Location Temp. Windchill Dew Point Humidity Wind Precip. Elev Updated Type